Lähimpiä lentokenttien sääasemia

 

EFHK - Helsinki/Vantaa, Finland
Ilmasuunta ja etäisyys Sääasema Bassenraitista: KO 24km
Päivitetty: 04/10/2022 00:20
Osittain pilvistä
Osittain pilvistä
 Tuulen suunta PLU
Tuuli: PLU 26 km/h
Lämpötila: 7°C
Hyytävyys: 3°C
Kastepiste: 4°C
Kosteus: 81%
Ilmanpaine: 1006 hPa
Pilvet: Osittain pilvistä
Näkyvyys: 10 km
Pilvitiedot: Osittain pilvistä 610 m
2022/10/03 21:20 EFHK 032120Z 34014KT 9999 FEW020 07/04 Q1006 NOSIG
EETN - Tallinn, Estonia
Ilmasuunta ja etäisyys Sääasema Bassenraitista: E 89km
Päivitetty: 04/10/2022 00:20
Enimmäkseen pilvistä
Enimmäkseen pilvistä
 Tuulen suunta P
Tuuli: P 20 km/h
Lämpötila: 9°C
Hyytävyys: 6°C
Kastepiste: 4°C
Kosteus: 71%
Ilmanpaine: 1004 hPa
Pilvet: Enimmäkseen pilvistä
Näkyvyys: 10 km
Pilvitiedot: Puolipilvistä 610 m
Enimmäkseen pilvistä 792 m
2022/10/03 21:20 EETN 032120Z 36011KT 330V040 9999 SCT020 BKN026 09/04 Q1004 TEMPO 36015G25KT
 
EFTU - Turku/Abo, Finland
Ilmasuunta ja etäisyys Sääasema Bassenraitista: LLU 133km
Päivitetty: 04/10/2022 00:20
Enimmäkseen pilvistä
Enimmäkseen pilvistä
 Tuulen suunta P
Tuuli: P 13 km/h
Lämpötila: 7°C
Hyytävyys: 5°C
Kastepiste: 6°C
Kosteus: 93%
Ilmanpaine: 1010 hPa
Pilvet: Enimmäkseen pilvistä
Näkyvyys: 10 km
Pilvitiedot: Enimmäkseen pilvistä 183 m
2022/10/03 21:20 EFTU 032120Z AUTO 36007KT 330V030 9999 BKN006 07/06 Q1010
EFTP - Tampere/Pirkkala, Finland
Ilmasuunta ja etäisyys Sääasema Bassenraitista: PLU 146km
Päivitetty: 04/10/2022 00:20
Vaihetelvaa
Vaihetelvaa
 Tuulen suunta PKO
Tuuli: PKO 15 km/h
Lämpötila: 8°C
Hyytävyys: 5°C
Kastepiste: 5°C
Kosteus: 82%
Ilmanpaine: 1010 hPa
Pilvet: Vaihetelvaa
Näkyvyys: 10 km
Pilvitiedot: Vaihetelvaa 427 m
2022/10/03 21:20 EFTP 032120Z AUTO 02008KT 330V060 9999 OVC014 08/05 Q1010
 
EFUT - Utti (fin-Afb), Finland
Ilmasuunta ja etäisyys Sääasema Bassenraitista: IKO 148km
Päivitetty: 04/10/2022 00:20
Enimmäkseen pilvistä
Enimmäkseen pilvistä
 Tuulen suunta P
Tuuli: P 26 km/h
Lämpötila: 7°C
Hyytävyys: 3°C
Kastepiste: 3°C
Kosteus: 76%
Ilmanpaine: 1004 hPa
Pilvet: Enimmäkseen pilvistä
Näkyvyys: 10 km
Pilvitiedot: Enimmäkseen pilvistä 610 m
2022/10/03 21:20 EFUT 032120Z AUTO 01014KT 9999 BKN020 07/03 Q1004
EEKA - Kardla, Estonia
Ilmasuunta ja etäisyys Sääasema Bassenraitista: LO 168km
Päivitetty: 03/10/2022 17:50
NOT Current
Selkeätä
Selkeätä
 Tuulen suunta PLU
Tuuli: PLU 24 km/h
Lämpötila: 12°C
Kastepiste: 8°C
Kosteus: 77%
Ilmanpaine: 1009 hPa
Yhteenveto: Selkeätä
Näkyvyys: enemmän kuin 10 km
2022/10/03 14:50 EEKA 031450Z 33013KT CAVOK 12/08 Q1009
 
EFHA - Halli (fin-Afb), Finland
Ilmasuunta ja etäisyys Sääasema Bassenraitista: P 184km
Päivitetty: 04/10/2022 00:20
Osittain pilvistä
Osittain pilvistä
 Tuulen suunta P
Tuuli: P 13 km/h
Lämpötila: 6°C
Hyytävyys: 3°C
Kastepiste: 4°C
Kosteus: 87%
Ilmanpaine: 1010 hPa
Pilvet: Osittain pilvistä
Näkyvyys: 10 km
Pilvitiedot: Osittain pilvistä 366 m
2022/10/03 21:20 EFHA 032120Z AUTO 35007KT 9999 FEW012 06/04 Q1010
EEPU - Parnu, Estonia
Ilmasuunta ja etäisyys Sääasema Bassenraitista: E 198km
Päivitetty: 04/10/2022 00:20
Vaihetelvaa
Vaihetelvaa
 Tuulen suunta PLU
Tuuli: PLU 20 km/h
Lämpötila: 8°C
Hyytävyys: 4°C
Kastepiste: 5°C
Kosteus: 82%
Ilmanpaine: 1003 hPa
Pilvet: Vaihetelvaa
Näkyvyys: 10 km
Pilvitiedot: Puolipilvistä 732 m
Enimmäkseen pilvistä 1707 m
Vaihetelvaa 2134 m
2022/10/03 21:20 EEPU 032120Z AUTO 34011KT 310V020 9999 SCT024/// BKN056/// OVC070/// 08/05 Q1003
 
EFPO - Pori (mil/Civ), Finland
Ilmasuunta ja etäisyys Sääasema Bassenraitista: LU 207km
Päivitetty: 04/10/2022 00:20
Vaihetelvaa
Vaihetelvaa
 Tuulen suunta PKO
Tuuli: PKO 7 km/h
Lämpötila: 8°C
Hyytävyys: 7°C
Kastepiste: 7°C
Kosteus: 93%
Ilmanpaine: 1012 hPa
Pilvet: Vaihetelvaa
Näkyvyys: 10 km
Pilvitiedot: Vaihetelvaa 792 m
2022/10/03 21:20 EFPO 032120Z AUTO 02004KT 340V040 9999 OVC026 08/07 Q1012
EFLP - Lappeenranta, Finland
Ilmasuunta ja etäisyys Sääasema Bassenraitista: IKO 215km
Päivitetty: 04/10/2022 00:20
Heikkoa sadetta, Vaihetelvaa
Heikkoa sadetta, Vaihetelvaa
 Tuulen suunta PKO
Tuuli: PKO 24 km/h, Puuskatuuli: 43 km/h
Lämpötila: 6°C
Hyytävyys: 2°C
Kastepiste: 4°C
Kosteus: 87%
Ilmanpaine: 1003 hPa
Yhteenveto: Heikkoa sadetta
Pilvet: Vaihetelvaa
Näkyvyys: 10 km
Pilvitiedot: Vaihetelvaa 762 m
2022/10/03 21:20 EFLP 032120Z AUTO 02013G23KT 9999 -RA OVC025 06/04 Q1003
 
EFMI - Mikkeli, Finland
Ilmasuunta ja etäisyys Sääasema Bassenraitista: KO 217km
Päivitetty: 04/10/2022 00:20
Selkeätä
Selkeätä
 Tuulen suunta P
Tuuli: P 11 km/h
Lämpötila: 7°C
Hyytävyys: 5°C
Kastepiste: 4°C
Kosteus: 81%
Ilmanpaine: 1006 hPa
Yhteenveto: Selkeätä
Näkyvyys: enemmän kuin 10 km
2022/10/03 21:20 EFMI 032120Z AUTO 36006KT 300V050 CAVOK 07/04 Q1006
EETU - Tartu, Estonia
Ilmasuunta ja etäisyys Sääasema Bassenraitista: EKA 240km
Päivitetty: 04/10/2022 00:20
Heikkoa sadetta, Vaihetelvaa
Heikkoa sadetta, Vaihetelvaa
 Tuulen suunta P
Tuuli: P 20 km/h
Lämpötila: 6°C
Hyytävyys: 2°C
Kastepiste: 4°C
Kosteus: 87%
Ilmanpaine: 999 hPa
Yhteenveto: Heikkoa sadetta
Pilvet: Vaihetelvaa
Näkyvyys: 10 km
Pilvitiedot: Enimmäkseen pilvistä 335 m
Vaihetelvaa 640 m
2022/10/03 21:20 EETU 032120Z AUTO 35011KT 320V020 9999 -RA BKN011/// OVC021/// 06/04 Q0999
 
EEKE - Kuressaare, Estonia
Ilmasuunta ja etäisyys Sääasema Bassenraitista: ELO 249km
Päivitetty: 04/10/2022 00:50
Puolipilvistä
Puolipilvistä
 Tuulen suunta P
Tuuli: P 24 km/h
Lämpötila: 11°C
Kastepiste: 7°C
Kosteus: 77%
Ilmanpaine: 1006 hPa
Pilvet: Puolipilvistä
Näkyvyys: 10 km
Pilvitiedot: Puolipilvistä 610 m
2022/10/03 21:50 EEKE 032150Z AUTO 35013KT 9999NDV SCT020 11/07 Q1006
EFJY - Jyvaskyla (mil/C, Finland
Ilmasuunta ja etäisyys Sääasema Bassenraitista: PKO 252km
Päivitetty: 04/10/2022 00:20
Selkeätä
Selkeätä
 Tuulen suunta P
Tuuli: P 11 km/h
Lämpötila: 5°C
Hyytävyys: 2°C
Kastepiste: 4°C
Kosteus: 93%
Ilmanpaine: 1010 hPa
Yhteenveto: Selkeätä
Näkyvyys: enemmän kuin 10 km
2022/10/03 21:20 EFJY 032120Z AUTO 35006KT CAVOK 05/04 Q1010
 
EFMA - Mariehamn/Aland, Finland
Ilmasuunta ja etäisyys Sääasema Bassenraitista: L 261km
Päivitetty: 04/10/2022 00:20
Enimmäkseen pilvistä
Enimmäkseen pilvistä
 Tuulen suunta PLU
Tuuli: PLU 13 km/h
Lämpötila: 10°C
Hyytävyys: 8°C
Kastepiste: 8°C
Kosteus: 88%
Ilmanpaine: 1012 hPa
Pilvet: Enimmäkseen pilvistä
Näkyvyys: 10 km
Pilvitiedot: Enimmäkseen pilvistä 518 m
2022/10/03 21:20 EFMA 032120Z AUTO 34007KT 9999 BKN017 10/08 Q1012
EFSI - Seinajoki-Ilmajo, Finland
Ilmasuunta ja etäisyys Sääasema Bassenraitista: PLU 294km
Päivitetty: 04/10/2022 00:20
Enimmäkseen pilvistä
Enimmäkseen pilvistä
 Tuulen suunta varies
Tuuli: varies 4 km/h
Lämpötila: 5°C
Kastepiste: 5°C
Kosteus: 100%
Ilmanpaine: 1012 hPa
Pilvet: Enimmäkseen pilvistä
Näkyvyys: 8 km
Pilvitiedot: Enimmäkseen pilvistä 518 m
2022/10/03 21:20 EFSI 032120Z AUTO VRB02KT 8000 BKN017 05/05 Q1012